Hastings Natural History Reservation, California Weather observations

Data are for 10 minute period ending at time listed.
 Day   Time   Solar   Ave.   Ave.  Ave.  Vector  Max.   Baro.   Total    
  of    of     Rad.   Air    Rel.  Wind   Wind   Wind  Press.  Precip.   
Year   Day            Temp.  Hum.  Speed  Dir.   Gust                    
2016   (PST)  Kw/m2    F      %     mph   deg.    mph    mb.     in.     
-------------------------------------------------------------------------
  38    2:20   0.00   42.7    65    0.4    81     1.5   961.1    0.00 
  38    2:30   0.00   45.1    56    1.9    66     4.5   961.0    0.00 
  38    2:40   0.00   45.0    60    0.7   223     2.3   960.9    0.00 
  38    2:50   0.00   44.0    60    1.1    70     3.7   960.7    0.00 
  38    3:00   0.00   47.4    48    1.4    71     3.1   960.6    0.00 
  38    3:10   0.00   47.4    54    1.6    67     3.9   960.7    0.00 
  38    3:20   0.00   46.6    57    1.1    67     3.6   960.7    0.00 
  38    3:30   0.00   45.8    58    1.4    72     3.3   960.6    0.00 
  38    3:40   0.00   46.1    57    1.6    62     3.9   960.6    0.00 
  38    3:50   0.00   45.8    57    2.0    61     5.0   960.5    0.00 
  38    4:00   0.00   45.3    60    1.9    57     4.6   960.5    0.00 
  38    4:10   0.00   44.8    58    2.5    52     3.6   960.5    0.00 
  38    4:20   0.00   44.2    60    2.6    54     4.0   960.3    0.00 
  38    4:30   0.00   43.9    60    1.9    54     3.7   960.2    0.00 
  38    4:40   0.00   43.4    61    1.7    58     3.1   960.2    0.00 
  38    4:50   0.00   43.3    61    1.5    45     3.1   960.1    0.00 
  38    5:00   0.00   43.5    59    1.2    48     3.2   960.0    0.00 
  38    5:10   0.00   43.2    61    0.4    57     2.1   960.1    0.00 
  38    5:20   0.00   43.2    61    0.8    63     1.8   960.0    0.00 
  38    5:30   0.00   43.4    62    1.4    58     2.9   959.9    0.00 
  38    5:40   0.00   42.8    66    0.8    50     3.1   959.9    0.00 
  38    5:50   0.00   42.4    69    2.0    50     3.6   959.7    0.00 
  38    6:00   0.00   42.5    72    0.7    55     2.0   959.6    0.00 
  38    6:10   0.00   42.8    72    1.0    55     2.6   959.7    0.00 
  38    6:20   0.00   45.1    66    2.4    63     7.7   959.6    0.00 
  38    6:30   0.00   46.1    65    1.4    45     4.8   959.8    0.00 
  38    6:40   0.00   44.6    71    1.8    46     3.2   959.8    0.00 
  38    6:50   0.00   43.8    74    1.9    52     3.0   959.9    0.00 
  38    7:00   0.00   45.9    70    2.7    67     5.0   959.8    0.00 
  38    7:10   0.00   46.2    71    1.8    65     3.7   959.9    0.00 
  38    7:20   0.00   45.5    71    0.6    39     2.8   960.0    0.00 
  38    7:30   0.00   44.6    74    1.3    59     3.7   960.0    0.00 
  38    7:40   0.00   44.8    73    0.5    52     2.1   960.0    0.00 
  38    7:50   0.01   44.8    74    0.5    60     1.8   960.0    0.00 
  38    8:00   0.01   44.8    76    0.6    54     2.1   960.1    0.00 
  38    8:10   0.01   45.0    76    0.2   212     1.5   960.2    0.00 
  38    8:20   0.01   45.3    75    0.4    78     1.7   960.1    0.00 
  38    8:30   0.01   46.1    74    1.0    77     2.9   960.0    0.00 
  38    8:40   0.01   47.0    72    1.6    62     4.5   959.9    0.00 
  38    8:50   0.01   48.1    69    0.7   211     2.4   959.9    0.00 
  38    9:00   0.01   49.6    66    0.5   227     1.9   959.9    0.00 
  38    9:10   0.01   52.4    62    1.3   198     3.4   959.9    0.00 
  38    9:20   0.01   55.1    55    1.6   135     3.6   960.0    0.00 
  38    9:30   0.01   56.6    52    1.4   235     5.0   960.0    0.00 
  38    9:40   0.01   59.4    46    1.9   251     5.6   960.1    0.00 
  38    9:50   0.02   60.9    43    1.3   257     5.3   960.3    0.00 
  38   10:00   0.05   61.9    41    2.7   250     5.8   960.3    0.00 
  38   10:10   0.04   62.2    42    2.2   228     4.6   960.3    0.00 
  38   10:20   0.06   61.8    41    0.9   228     2.7   960.1    0.00 
  38   10:30   0.03   62.6    40    0.3   195     1.8   960.0    0.00 
  38   10:40   0.03   63.2    38    0.4   232     2.5   959.9    0.00 
  38   10:50   0.04   64.2    37    1.0   213     2.7   959.9    0.00 
  38   11:00   0.03   65.9    35    2.8   246     4.9   959.8    0.00 
  38   11:10   0.03   67.1    34    2.5   254     5.3   959.8    0.00 
  38   11:20   0.03   67.5    33    1.2   295     5.9   959.7    0.00 
  38   11:30   0.03   67.9    36    2.7   257     6.2   959.6    0.00 
  38   11:40   0.03   68.5    35    2.5   260     5.4   959.4    0.00 
  38   11:50   0.03   68.7    33    1.9   282     4.7   959.3    0.00 
  38   12:00   0.03   69.0    33    1.3   280     2.9   959.1    0.00 
  38   12:10   0.12   69.4    32    2.2   236     6.1   958.8    0.00 
  38   12:20   0.05   70.8    30    1.3   338     3.9   958.6    0.00 
  38   12:30   0.36   70.6    29    2.2   286     5.6   958.5    0.00 
  38   12:40   0.14   70.9    29    1.8   328     4.8   958.2    0.00 
  38   12:50   0.03   70.8    30    3.3   276     7.8   958.0    0.00 
  38   13:00   0.05   71.0    29    3.2   256     7.7   957.9    0.00 
  38   13:10   0.08   71.6    28    2.3   272     6.4   957.7    0.00 
  38   13:20   0.24   72.3    26    1.9   326     6.0   957.5    0.00 
  38   13:30   0.58   74.1    25    1.7    12     4.7   957.4    0.00 
  38   13:40   0.57   74.0    24    2.0   356     5.2   957.1    0.00 
  38   13:50   0.56   73.8    25    1.5   320     4.5   957.0    0.00 
  38   14:00   0.55   74.7    25    1.8   297     5.0   957.0    0.00 
  38   14:10   0.54   75.0    24    2.0   273     6.1   956.9    0.00 
  38   14:20   0.52   75.1    22    3.2   256     7.5   956.9    0.00 
  38   14:30   0.50   75.1    21    2.8   259     7.0   957.0    0.00 
  38   14:40   0.48   75.1    20    2.7   298     7.0   956.9    0.00 
  38   14:50   0.46   75.3    21    1.3   329     6.1   956.9    0.00 
  38   15:00   0.44   75.1    24    2.1   294     5.5   956.9    0.00 
  38   15:10   0.42   75.0    25    2.1   266     5.8   956.9    0.00 
  38   15:20   0.39   74.7    26    3.8   256     7.2   956.9    0.00 
  38   15:30   0.37   74.1    26    4.1   249     7.4   956.9    0.00 
  38   15:40   0.34   74.5    26    2.3   254     5.8   956.9    0.00 
  38   15:50   0.31   74.7    26    1.7   271     6.1   956.9    0.00 
  38   16:00   0.28   74.4    27    1.5   297     5.0   956.9    0.00 
  38   16:10   0.26   74.0    28    1.2   285     3.7   956.9    0.00 
  38   16:20   0.23   73.4    29    3.0   258     5.6   956.9    0.00 
  38   16:30   0.19   71.8    30    3.1   261     6.1   956.9    0.00 
  38   16:40   0.16   71.2    31    2.3   260     4.8   956.9    0.00 
  38   16:50   0.13   71.0    32    1.0   275     2.9   956.9    0.00 
  38   17:00   0.10   70.8    32    1.0    37     4.7   957.0    0.00 
  38   17:10   0.07   70.1    32    0.9    58     3.7   957.0    0.00 
  38   17:20   0.02   68.1    35    0.6   256     2.0   957.1    0.00 
  38   17:30   0.00   65.5    37    0.9    58     3.3   957.4    0.00 
  38   17:40   0.00   64.5    38    0.4    60     2.3   957.6    0.00 
  38   17:50   0.00   62.4    41    0.6    69     1.9   957.6    0.00 
  38   18:00   0.00   60.6    44    1.4    77     2.9   957.9    0.00 
  38   18:10   0.00   59.9    45    3.0    61     4.7   958.0    0.00 
  38   18:20   0.00   59.1    45    2.2    70     5.7   958.1    0.00 
  38   18:30   0.00   58.6    43    2.0    70     4.2   958.2    0.00 
  38   18:40   0.00   58.1    42    2.6    67     4.7   958.5    0.00 
  38   18:50   0.00   57.5    43    2.8    64     5.1   958.6    0.00 
  38   19:00   0.00   57.2    42    2.9    67     5.4   958.7    0.00 
  38   19:10   0.00   57.6    41    3.5    66     7.6   958.8    0.00 
  38   19:20   0.00   56.6    45    3.1    66     5.6   958.9    0.00 
  38   19:30   0.00   55.8    45    2.5    64     3.9   958.8    0.00 
  38   19:40   0.00   54.1    51    2.7    60     4.2   958.9    0.00 
  38   19:50   0.00   53.5    52    2.6    63     4.0   958.9    0.00 
  38   20:00   0.00   52.9    54    2.9    62     5.3   959.0    0.00 
  38   20:10   0.00   51.3    58    2.6    59     4.3   959.1    0.00 
  38   20:20   0.00   51.4    58    2.7    62     4.0   959.1    0.00 
  38   20:30   0.00   51.0    59    2.8    66     5.0   959.1    0.00 
  38   20:40   0.00   50.8    60    2.8    62     4.3   959.2    0.00 
  38   20:50   0.00   50.1    63    2.9    61     4.2   959.2    0.00 
  38   21:00   0.00   49.7    63    2.8    73     4.6   959.1    0.00 
  38   21:10   0.00   51.0    60    2.3    66     3.7   959.1    0.00 
  38   21:20   0.00   51.2    60    2.5    75     4.7   959.2    0.00 
  38   21:30   0.00   50.9    61    2.5    75     4.2   959.3    0.00 
  38   21:40   0.00   51.8    58    3.0    71     4.7   959.3    0.00 
  38   21:50   0.00   52.9    56    2.9    68     4.9   959.3    0.00 
  38   22:00   0.00   53.4    54    1.9    78     3.6   959.3    0.00 
  38   22:10   0.00   54.3    52    2.3    71     5.0   959.3    0.00 
  38   22:20   0.00   53.9    54    2.0    77     3.8   959.3    0.00 
  38   22:30   0.00   52.8    57    2.5    70     3.9   959.4    0.00 
  38   22:40   0.00   51.1    62    1.7    74     3.2   959.4    0.00 
  38   22:50   0.00   50.3    64    1.2    84     2.4   959.3    0.00 
  38   23:00   0.00   49.4    66    0.4    86     1.7   959.3    0.00 
  38   23:10   0.00   48.5    68    0.4    74     1.8   959.3    0.00 
  38   23:20   0.00   47.7    70    0.7    78     2.6   959.2    0.00 
  38   23:30   0.00   48.0    69    0.4    94     2.1   959.2    0.00 
  38   23:40   0.00   47.3    70    0.6    66     2.5   959.3    0.00 
  38   23:50   0.00   46.4    71    0.7    61     2.0   959.3    0.00 
  39    0:00   0.00   46.2    72    1.0    71     2.6   959.1    0.00 
  39    0:10   0.00   46.6    70    1.7    71     2.8   959.0    0.00 
  39    0:20   0.00   47.0    69    2.0    71     3.4   958.9    0.00 
  39    0:30   0.00   46.7    68    2.3    65     4.7   958.8    0.00 
  39    0:40   0.00   47.4    64    3.0    55     4.6   958.6    0.00 
  39    0:50   0.00   48.3    60    3.2    49     5.2   958.5    0.00 
  39    1:00   0.00   51.0    54    2.7    50     5.0   958.5    0.00 
  39    1:10   0.00   53.1    49    3.0    51     6.9   958.6    0.00 
  39    1:20   0.00   55.2    45    2.3    53     5.2   958.6    0.00 
  39    1:30   0.00   57.0    42    2.4    39     4.9   958.6    0.00 
  39    1:40   0.00   56.9    41    2.0    39     4.2   958.6    0.00 
  39    1:50   0.00   57.4    38    1.6    17     4.4   958.6    0.00 
  39    2:00   0.00   57.9    37    2.0    18     5.5   958.4    0.00 
  39    2:10   0.00   58.3    35    1.7    35     4.1   958.3    0.00 

Return to Hastings Natural History Reservation graphs page.


Western Regional Climate Center,wrcc@dri.edu